sensor_id;sensor_type;location;lat;lon;timestamp;pressure;altitude;pressure_sealevel;temperature;humidity
78206;BME280;67480;48.920;12.880;2023-05-29T00:01:29;97126.78;;;16.84;40.64
78206;BME280;67480;48.920;12.880;2023-05-29T00:03:56;97119.84;;;16.87;40.58
78206;BME280;67480;48.920;12.880;2023-05-29T00:06:21;97121.88;;;16.74;41.06
78206;BME280;67480;48.920;12.880;2023-05-29T00:08:47;97118.91;;;16.63;41.31
78206;BME280;67480;48.920;12.880;2023-05-29T00:11:12;97118.63;;;16.68;41.41
78206;BME280;67480;48.920;12.880;2023-05-29T00:13:38;97124.41;;;16.67;41.26
78206;BME280;67480;48.920;12.880;2023-05-29T00:16:03;97126.31;;;16.66;41.66
78206;BME280;67480;48.920;12.880;2023-05-29T00:18:29;97116.53;;;16.62;41.83
78206;BME280;67480;48.920;12.880;2023-05-29T00:20:55;97116.88;;;16.60;42.35
78206;BME280;67480;48.920;12.880;2023-05-29T00:23:21;97114.66;;;16.50;41.50
78206;BME280;67480;48.920;12.880;2023-05-29T00:25:47;97112.25;;;16.32;41.98
78206;BME280;67480;48.920;12.880;2023-05-29T00:28:12;97114.66;;;16.22;42.55
78206;BME280;67480;48.920;12.880;2023-05-29T00:30:38;97121.78;;;16.26;42.67
78206;BME280;67480;48.920;12.880;2023-05-29T00:33:03;97119.84;;;16.27;42.05
78206;BME280;67480;48.920;12.880;2023-05-29T00:35:29;97114.41;;;16.27;42.24
78206;BME280;67480;48.920;12.880;2023-05-29T00:37:54;97117.03;;;16.23;42.15
78206;BME280;67480;48.920;12.880;2023-05-29T00:40:20;97118.84;;;16.19;41.98
78206;BME280;67480;48.920;12.880;2023-05-29T00:42:45;97113.41;;;16.19;41.84
78206;BME280;67480;48.920;12.880;2023-05-29T00:45:10;97108.34;;;16.17;42.17
78206;BME280;67480;48.920;12.880;2023-05-29T00:47:36;97114.28;;;16.07;42.69
78206;BME280;67480;48.920;12.880;2023-05-29T00:50:02;97116.81;;;16.00;43.13
78206;BME280;67480;48.920;12.880;2023-05-29T00:52:29;97106.63;;;15.97;42.80
78206;BME280;67480;48.920;12.880;2023-05-29T00:54:54;97108.09;;;15.94;42.92
78206;BME280;67480;48.920;12.880;2023-05-29T00:57:20;97102.72;;;15.82;43.47
78206;BME280;67480;48.920;12.880;2023-05-29T00:59:47;97106.72;;;15.72;43.71
78206;BME280;67480;48.920;12.880;2023-05-29T01:02:12;97099.16;;;15.66;44.00
78206;BME280;67480;48.920;12.880;2023-05-29T01:04:39;97103.25;;;15.59;43.91
78206;BME280;67480;48.920;12.880;2023-05-29T01:07:05;97105.06;;;15.55;43.44
78206;BME280;67480;48.920;12.880;2023-05-29T01:09:30;97101.03;;;15.49;43.09
78206;BME280;67480;48.920;12.880;2023-05-29T01:12:16;97102.59;;;15.50;43.83
78206;BME280;67480;48.920;12.880;2023-05-29T01:14:57;97110.28;;;15.48;44.86
78206;BME280;67480;48.920;12.880;2023-05-29T01:17:42;97102.38;;;15.43;44.83
78206;BME280;67480;48.920;12.880;2023-05-29T01:20:48;97100.78;;;15.17;44.92
78206;BME280;67480;48.920;12.880;2023-05-29T01:23:51;97100.44;;;15.31;44.38
78206;BME280;67480;48.920;12.880;2023-05-29T01:29:04;97102.94;;;15.12;45.02
78206;BME280;67480;48.920;12.880;2023-05-29T01:31:32;97099.69;;;15.18;44.80
78206;BME280;67480;48.920;12.880;2023-05-29T01:33:59;97104.88;;;15.23;44.53
78206;BME280;67480;48.920;12.880;2023-05-29T01:36:26;97100.66;;;15.26;44.30
78206;BME280;67480;48.920;12.880;2023-05-29T01:38:53;97106.44;;;15.12;44.34
78206;BME280;67480;48.920;12.880;2023-05-29T01:41:19;97103.41;;;15.14;44.39
78206;BME280;67480;48.920;12.880;2023-05-29T01:43:46;97098.41;;;15.16;44.27
78206;BME280;67480;48.920;12.880;2023-05-29T01:46:13;97087.81;;;15.11;44.63
78206;BME280;67480;48.920;12.880;2023-05-29T01:48:42;97086.31;;;15.13;44.62
78206;BME280;67480;48.920;12.880;2023-05-29T01:51:09;97091.53;;;14.94;44.82
78206;BME280;67480;48.920;12.880;2023-05-29T01:53:36;97088.72;;;14.90;44.69
78206;BME280;67480;48.920;12.880;2023-05-29T01:56:03;97095.72;;;14.91;44.98
78206;BME280;67480;48.920;12.880;2023-05-29T01:58:29;97090.84;;;14.97;44.52
78206;BME280;67480;48.920;12.880;2023-05-29T02:00:56;97084.88;;;14.79;44.00
78206;BME280;67480;48.920;12.880;2023-05-29T02:03:21;97080.38;;;14.83;45.10
78206;BME280;67480;48.920;12.880;2023-05-29T02:05:46;97085.91;;;14.99;44.24
78206;BME280;67480;48.920;12.880;2023-05-29T02:08:12;97087.03;;;14.98;44.88
78206;BME280;67480;48.920;12.880;2023-05-29T02:11:00;97095.47;;;14.84;44.07
78206;BME280;67480;48.920;12.880;2023-05-29T02:13:25;97086.78;;;14.78;44.75
78206;BME280;67480;48.920;12.880;2023-05-29T02:15:50;97088.94;;;14.60;45.54
78206;BME280;67480;48.920;12.880;2023-05-29T02:18:16;97091.66;;;14.72;45.81
78206;BME280;67480;48.920;12.880;2023-05-29T02:20:45;97087.00;;;14.61;45.71
78206;BME280;67480;48.920;12.880;2023-05-29T02:23:11;97076.38;;;14.43;46.03
78206;BME280;67480;48.920;12.880;2023-05-29T02:25:36;97076.63;;;14.50;45.81
78206;BME280;67480;48.920;12.880;2023-05-29T02:28:02;97088.22;;;14.51;45.42
78206;BME280;67480;48.920;12.880;2023-05-29T02:30:28;97079.88;;;14.56;44.68
78206;BME280;67480;48.920;12.880;2023-05-29T02:32:54;97080.13;;;14.63;43.25
78206;BME280;67480;48.920;12.880;2023-05-29T02:35:20;97080.13;;;14.76;43.74
78206;BME280;67480;48.920;12.880;2023-05-29T02:37:50;97074.94;;;14.70;43.42
78206;BME280;67480;48.920;12.880;2023-05-29T02:40:16;97075.75;;;14.71;44.26
78206;BME280;67480;48.920;12.880;2023-05-29T02:42:42;97076.16;;;14.61;44.13
78206;BME280;67480;48.920;12.880;2023-05-29T02:45:08;97076.28;;;14.52;43.50
78206;BME280;67480;48.920;12.880;2023-05-29T02:47:33;97073.31;;;14.45;44.23
78206;BME280;67480;48.920;12.880;2023-05-29T02:49:59;97064.53;;;14.35;44.03
78206;BME280;67480;48.920;12.880;2023-05-29T02:52:24;97070.09;;;14.51;43.96
78206;BME280;67480;48.920;12.880;2023-05-29T02:54:50;97064.78;;;14.55;43.88
78206;BME280;67480;48.920;12.880;2023-05-29T02:57:15;97061.16;;;14.51;43.59
78206;BME280;67480;48.920;12.880;2023-05-29T02:59:41;97069.84;;;14.57;43.12
78206;BME280;67480;48.920;12.880;2023-05-29T03:02:06;97072.19;;;14.46;43.11
78206;BME280;67480;48.920;12.880;2023-05-29T03:04:31;97068.38;;;14.47;43.20
78206;BME280;67480;48.920;12.880;2023-05-29T03:06:57;97066.00;;;14.45;43.58
78206;BME280;67480;48.920;12.880;2023-05-29T03:09:22;97068.94;;;14.40;43.29
78206;BME280;67480;48.920;12.880;2023-05-29T03:11:48;97058.28;;;14.35;43.58
78206;BME280;67480;48.920;12.880;2023-05-29T03:14:14;97062.84;;;14.43;42.94
78206;BME280;67480;48.920;12.880;2023-05-29T03:16:40;97063.75;;;14.47;42.92
78206;BME280;67480;48.920;12.880;2023-05-29T03:19:06;97066.91;;;14.49;42.50
78206;BME280;67480;48.920;12.880;2023-05-29T03:21:32;97063.97;;;14.54;42.88
78206;BME280;67480;48.920;12.880;2023-05-29T03:23:58;97063.06;;;14.50;42.83
78206;BME280;67480;48.920;12.880;2023-05-29T03:26:24;97064.34;;;14.53;43.48
78206;BME280;67480;48.920;12.880;2023-05-29T03:28:51;97069.03;;;14.44;42.64
78206;BME280;67480;48.920;12.880;2023-05-29T03:31:16;97065.66;;;14.47;42.94
78206;BME280;67480;48.920;12.880;2023-05-29T03:33:41;97065.91;;;14.42;43.32
78206;BME280;67480;48.920;12.880;2023-05-29T03:36:07;97068.31;;;14.34;43.16
78206;BME280;67480;48.920;12.880;2023-05-29T03:38:32;97066.16;;;14.28;43.79
78206;BME280;67480;48.920;12.880;2023-05-29T03:40:58;97071.69;;;14.19;43.46
78206;BME280;67480;48.920;12.880;2023-05-29T03:43:23;97074.72;;;14.30;43.60
78206;BME280;67480;48.920;12.880;2023-05-29T03:45:49;97072.16;;;14.33;43.40
78206;BME280;67480;48.920;12.880;2023-05-29T03:48:14;97071.50;;;14.36;43.19
78206;BME280;67480;48.920;12.880;2023-05-29T03:50:40;97072.66;;;14.35;43.31
78206;BME280;67480;48.920;12.880;2023-05-29T03:53:05;97079.63;;;14.36;44.46
78206;BME280;67480;48.920;12.880;2023-05-29T03:55:31;97077.06;;;14.40;44.91
78206;BME280;67480;48.920;12.880;2023-05-29T03:57:56;97081.81;;;14.43;44.50
78206;BME280;67480;48.920;12.880;2023-05-29T04:00:22;97080.88;;;14.39;45.32
78206;BME280;67480;48.920;12.880;2023-05-29T04:02:47;97080.66;;;14.44;44.62
78206;BME280;67480;48.920;12.880;2023-05-29T04:05:12;97085.41;;;14.47;44.30
78206;BME280;67480;48.920;12.880;2023-05-29T04:07:38;97088.78;;;14.44;44.00
78206;BME280;67480;48.920;12.880;2023-05-29T04:10:04;97090.59;;;14.52;43.50
78206;BME280;67480;48.920;12.880;2023-05-29T04:12:30;97088.66;;;14.41;45.42
78206;BME280;67480;48.920;12.880;2023-05-29T04:14:55;97084.56;;;14.34;45.76
78206;BME280;67480;48.920;12.880;2023-05-29T04:17:20;97089.34;;;14.38;46.32
78206;BME280;67480;48.920;12.880;2023-05-29T04:19:46;97092.56;;;14.31;47.41
78206;BME280;67480;48.920;12.880;2023-05-29T04:22:11;97090.63;;;14.31;46.92
78206;BME280;67480;48.920;12.880;2023-05-29T04:24:36;97094.69;;;14.25;47.32
78206;BME280;67480;48.920;12.880;2023-05-29T04:27:02;97097.28;;;14.22;47.35
78206;BME280;67480;48.920;12.880;2023-05-29T04:29:30;97104.69;;;14.12;47.93
78206;BME280;67480;48.920;12.880;2023-05-29T04:31:55;97099.94;;;14.09;48.17
78206;BME280;67480;48.920;12.880;2023-05-29T04:34:21;97106.59;;;14.12;47.60
78206;BME280;67480;48.920;12.880;2023-05-29T04:36:47;97111.50;;;13.97;47.74
78206;BME280;67480;48.920;12.880;2023-05-29T04:39:13;97117.66;;;13.86;48.40
78206;BME280;67480;48.920;12.880;2023-05-29T04:41:41;97111.31;;;14.03;48.54
78206;BME280;67480;48.920;12.880;2023-05-29T04:44:07;97119.59;;;14.18;48.39
78206;BME280;67480;48.920;12.880;2023-05-29T04:46:33;97116.00;;;14.27;48.35
78206;BME280;67480;48.920;12.880;2023-05-29T04:49:00;97118.91;;;14.22;48.24
78206;BME280;67480;48.920;12.880;2023-05-29T04:51:27;97122.59;;;14.38;48.34
78206;BME280;67480;48.920;12.880;2023-05-29T04:53:53;97118.94;;;14.55;47.73
78206;BME280;67480;48.920;12.880;2023-05-29T04:56:19;97127.25;;;14.16;48.70
78206;BME280;67480;48.920;12.880;2023-05-29T04:58:44;97125.59;;;14.24;48.44
78206;BME280;67480;48.920;12.880;2023-05-29T05:01:09;97122.06;;;14.45;48.69
78206;BME280;67480;48.920;12.880;2023-05-29T05:03:39;97129.00;;;14.67;48.26
78206;BME280;67480;48.920;12.880;2023-05-29T05:06:05;97134.09;;;14.81;48.31
78206;BME280;67480;48.920;12.880;2023-05-29T05:08:32;97140.19;;;14.90;47.28
78206;BME280;67480;48.920;12.880;2023-05-29T05:10:59;97133.00;;;14.94;45.57
78206;BME280;67480;48.920;12.880;2023-05-29T05:13:24;97142.69;;;14.95;45.26
78206;BME280;67480;48.920;12.880;2023-05-29T05:15:50;97143.59;;;14.99;45.68
78206;BME280;67480;48.920;12.880;2023-05-29T05:18:16;97153.19;;;14.97;44.59
78206;BME280;67480;48.920;12.880;2023-05-29T05:20:41;97152.75;;;14.95;45.19
78206;BME280;67480;48.920;12.880;2023-05-29T05:23:06;97159.31;;;15.06;44.79
78206;BME280;67480;48.920;12.880;2023-05-29T05:25:32;97165.53;;;15.19;44.85
78206;BME280;67480;48.920;12.880;2023-05-29T05:27:59;97158.97;;;15.20;45.60
78206;BME280;67480;48.920;12.880;2023-05-29T05:30:25;97169.13;;;15.23;45.61
78206;BME280;67480;48.920;12.880;2023-05-29T05:32:50;97168.91;;;15.28;45.68
78206;BME280;67480;48.920;12.880;2023-05-29T05:35:15;97168.78;;;15.37;44.68
78206;BME280;67480;48.920;12.880;2023-05-29T05:37:41;97165.75;;;15.51;44.44
78206;BME280;67480;48.920;12.880;2023-05-29T05:40:06;97169.38;;;15.55;44.78
78206;BME280;67480;48.920;12.880;2023-05-29T05:42:33;97167.91;;;15.57;44.79
78206;BME280;67480;48.920;12.880;2023-05-29T05:44:59;97173.88;;;15.63;45.40
78206;BME280;67480;48.920;12.880;2023-05-29T05:47:24;97169.00;;;15.69;44.31
78206;BME280;67480;48.920;12.880;2023-05-29T05:49:50;97166.06;;;15.74;44.11
78206;BME280;67480;48.920;12.880;2023-05-29T05:52:17;97171.44;;;15.86;43.17
78206;BME280;67480;48.920;12.880;2023-05-29T05:54:43;97175.41;;;15.89;43.78
78206;BME280;67480;48.920;12.880;2023-05-29T05:57:09;97173.38;;;15.86;43.47
78206;BME280;67480;48.920;12.880;2023-05-29T05:59:34;97174.84;;;15.95;44.05
78206;BME280;67480;48.920;12.880;2023-05-29T06:01:59;97174.69;;;16.04;43.95
78206;BME280;67480;48.920;12.880;2023-05-29T06:04:25;97176.34;;;16.21;43.17
78206;BME280;67480;48.920;12.880;2023-05-29T06:06:50;97178.47;;;16.28;43.50
78206;BME280;67480;48.920;12.880;2023-05-29T06:09:15;97172.19;;;16.11;43.24
78206;BME280;67480;48.920;12.880;2023-05-29T06:11:40;97178.44;;;15.99;43.54
78206;BME280;67480;48.920;12.880;2023-05-29T06:14:06;97178.13;;;15.89;42.92
78206;BME280;67480;48.920;12.880;2023-05-29T06:16:31;97181.34;;;15.66;43.66
78206;BME280;67480;48.920;12.880;2023-05-29T06:18:57;97181.19;;;15.87;44.22
78206;BME280;67480;48.920;12.880;2023-05-29T06:21:22;97183.84;;;15.99;44.11
78206;BME280;67480;48.920;12.880;2023-05-29T06:23:48;97191.56;;;15.97;44.60
78206;BME280;67480;48.920;12.880;2023-05-29T06:26:13;97193.38;;;15.93;45.22
78206;BME280;67480;48.920;12.880;2023-05-29T06:28:41;97194.25;;;16.10;46.28
78206;BME280;67480;48.920;12.880;2023-05-29T06:31:06;97194.16;;;16.06;46.28
78206;BME280;67480;48.920;12.880;2023-05-29T06:33:32;97194.59;;;16.08;46.55
78206;BME280;67480;48.920;12.880;2023-05-29T06:35:57;97194.31;;;16.26;46.95
78206;BME280;67480;48.920;12.880;2023-05-29T06:38:22;97211.50;;;16.17;47.99
78206;BME280;67480;48.920;12.880;2023-05-29T06:40:48;97200.84;;;16.37;47.61
78206;BME280;67480;48.920;12.880;2023-05-29T06:43:13;97203.13;;;16.35;47.33
78206;BME280;67480;48.920;12.880;2023-05-29T06:45:38;97204.47;;;16.41;47.12
78206;BME280;67480;48.920;12.880;2023-05-29T06:48:04;97214.13;;;16.54;47.65
78206;BME280;67480;48.920;12.880;2023-05-29T06:50:30;97207.59;;;16.71;47.38
78206;BME280;67480;48.920;12.880;2023-05-29T06:52:55;97208.19;;;16.65;46.47
78206;BME280;67480;48.920;12.880;2023-05-29T06:55:20;97215.34;;;16.85;47.11
78206;BME280;67480;48.920;12.880;2023-05-29T06:57:46;97214.69;;;16.76;46.94
78206;BME280;67480;48.920;12.880;2023-05-29T07:00:12;97217.41;;;16.76;47.01
78206;BME280;67480;48.920;12.880;2023-05-29T07:02:37;97216.97;;;16.74;46.11
78206;BME280;67480;48.920;12.880;2023-05-29T07:05:03;97214.28;;;16.90;47.79
78206;BME280;67480;48.920;12.880;2023-05-29T07:07:29;97214.41;;;17.09;44.97
78206;BME280;67480;48.920;12.880;2023-05-29T07:09:54;97214.22;;;17.18;45.03
78206;BME280;67480;48.920;12.880;2023-05-29T07:12:21;97219.66;;;17.18;45.80
78206;BME280;67480;48.920;12.880;2023-05-29T07:14:47;97220.22;;;17.40;45.03
78206;BME280;67480;48.920;12.880;2023-05-29T07:17:14;97219.41;;;17.55;43.91
78206;BME280;67480;48.920;12.880;2023-05-29T07:19:39;97227.97;;;17.73;43.46
78206;BME280;67480;48.920;12.880;2023-05-29T07:22:05;97227.63;;;17.75;41.94
78206;BME280;67480;48.920;12.880;2023-05-29T07:24:30;97225.66;;;17.91;43.01
78206;BME280;67480;48.920;12.880;2023-05-29T07:26:56;97223.59;;;18.04;43.02
78206;BME280;67480;48.920;12.880;2023-05-29T07:29:22;97228.47;;;18.30;42.01
78206;BME280;67480;48.920;12.880;2023-05-29T07:31:49;97227.31;;;18.31;42.97
78206;BME280;67480;48.920;12.880;2023-05-29T07:34:14;97220.69;;;18.52;43.19
78206;BME280;67480;48.920;12.880;2023-05-29T07:36:56;97235.75;;;18.65;41.71
78206;BME280;67480;48.920;12.880;2023-05-29T07:39:21;97224.63;;;18.74;40.54
78206;BME280;67480;48.920;12.880;2023-05-29T07:41:47;97222.84;;;18.82;41.10
78206;BME280;67480;48.920;12.880;2023-05-29T07:44:12;97226.16;;;18.95;41.89
78206;BME280;67480;48.920;12.880;2023-05-29T07:46:37;97226.97;;;18.95;38.88
78206;BME280;67480;48.920;12.880;2023-05-29T07:49:02;97222.94;;;19.08;37.84
78206;BME280;67480;48.920;12.880;2023-05-29T07:51:28;97223.63;;;18.82;37.53
78206;BME280;67480;48.920;12.880;2023-05-29T07:53:53;97225.63;;;18.85;37.92
78206;BME280;67480;48.920;12.880;2023-05-29T07:56:19;97210.59;;;18.95;38.38
78206;BME280;67480;48.920;12.880;2023-05-29T07:58:44;97217.22;;;19.17;37.95
78206;BME280;67480;48.920;12.880;2023-05-29T08:01:09;97223.59;;;19.48;38.36
78206;BME280;67480;48.920;12.880;2023-05-29T08:03:35;97220.25;;;19.58;37.28
78206;BME280;67480;48.920;12.880;2023-05-29T08:06:01;97218.56;;;19.77;37.85
78206;BME280;67480;48.920;12.880;2023-05-29T08:08:26;97218.56;;;19.77;35.04
78206;BME280;67480;48.920;12.880;2023-05-29T08:10:51;97216.19;;;20.02;36.22
78206;BME280;67480;48.920;12.880;2023-05-29T08:13:17;97223.97;;;20.00;35.78
78206;BME280;67480;48.920;12.880;2023-05-29T08:15:42;97220.78;;;20.25;35.92
78206;BME280;67480;48.920;12.880;2023-05-29T08:18:07;97226.03;;;20.37;36.47
78206;BME280;67480;48.920;12.880;2023-05-29T08:20:33;97223.72;;;20.43;34.36
78206;BME280;67480;48.920;12.880;2023-05-29T08:22:59;97222.56;;;20.10;33.85
78206;BME280;67480;48.920;12.880;2023-05-29T08:25:24;97217.34;;;20.31;34.73
78206;BME280;67480;48.920;12.880;2023-05-29T08:27:50;97221.78;;;20.73;33.86
78206;BME280;67480;48.920;12.880;2023-05-29T08:30:15;97219.22;;;20.91;32.51
78206;BME280;67480;48.920;12.880;2023-05-29T08:32:41;97226.38;;;21.03;33.52
78206;BME280;67480;48.920;12.880;2023-05-29T08:35:06;97218.94;;;21.00;34.61
78206;BME280;67480;48.920;12.880;2023-05-29T08:37:32;97223.91;;;20.91;33.53
78206;BME280;67480;48.920;12.880;2023-05-29T08:39:57;97224.97;;;20.79;35.55
78206;BME280;67480;48.920;12.880;2023-05-29T08:42:32;97225.94;;;21.01;33.56
78206;BME280;67480;48.920;12.880;2023-05-29T08:45:02;97227.66;;;21.13;34.24
78206;BME280;67480;48.920;12.880;2023-05-29T08:47:32;97226.63;;;20.87;33.71
78206;BME280;67480;48.920;12.880;2023-05-29T08:50:00;97221.50;;;20.82;33.51
78206;BME280;67480;48.920;12.880;2023-05-29T08:52:26;97222.13;;;20.72;32.87
78206;BME280;67480;48.920;12.880;2023-05-29T08:54:53;97226.91;;;20.79;33.91
78206;BME280;67480;48.920;12.880;2023-05-29T08:57:19;97226.19;;;20.85;33.17
78206;BME280;67480;48.920;12.880;2023-05-29T08:59:46;97227.59;;;21.09;32.92
78206;BME280;67480;48.920;12.880;2023-05-29T09:02:14;97230.31;;;21.09;34.05
78206;BME280;67480;48.920;12.880;2023-05-29T09:04:43;97232.97;;;20.99;32.69
78206;BME280;67480;48.920;12.880;2023-05-29T09:07:18;97229.69;;;21.23;33.13
78206;BME280;67480;48.920;12.880;2023-05-29T09:09:45;97226.22;;;21.30;32.95
78206;BME280;67480;48.920;12.880;2023-05-29T09:12:10;97237.34;;;21.07;32.14
78206;BME280;67480;48.920;12.880;2023-05-29T09:14:37;97220.59;;;21.12;33.18
78206;BME280;67480;48.920;12.880;2023-05-29T09:17:05;97231.03;;;21.44;33.07
78206;BME280;67480;48.920;12.880;2023-05-29T09:19:32;97240.06;;;21.44;31.83
78206;BME280;67480;48.920;12.880;2023-05-29T09:22:05;97234.84;;;21.80;31.02
78206;BME280;67480;48.920;12.880;2023-05-29T09:24:35;97239.03;;;22.26;32.20
78206;BME280;67480;48.920;12.880;2023-05-29T09:27:04;97246.44;;;22.22;30.99
78206;BME280;67480;48.920;12.880;2023-05-29T09:29:33;97235.06;;;22.09;29.96
78206;BME280;67480;48.920;12.880;2023-05-29T09:32:06;97241.09;;;22.51;30.55
78206;BME280;67480;48.920;12.880;2023-05-29T09:34:32;97242.72;;;22.63;29.90
78206;BME280;67480;48.920;12.880;2023-05-29T09:37:05;97238.88;;;22.85;29.18
78206;BME280;67480;48.920;12.880;2023-05-29T09:39:49;97244.84;;;23.23;30.96
78206;BME280;67480;48.920;12.880;2023-05-29T09:42:17;97247.56;;;23.38;28.56
78206;BME280;67480;48.920;12.880;2023-05-29T09:44:45;97239.34;;;23.70;28.24
78206;BME280;67480;48.920;12.880;2023-05-29T09:47:16;97246.00;;;23.94;27.33
78206;BME280;67480;48.920;12.880;2023-05-29T09:49:42;97234.22;;;24.08;27.28
78206;BME280;67480;48.920;12.880;2023-05-29T09:52:10;97238.97;;;23.72;27.72
78206;BME280;67480;48.920;12.880;2023-05-29T09:54:39;97228.66;;;24.30;27.40
78206;BME280;67480;48.920;12.880;2023-05-29T09:57:06;97228.22;;;24.38;26.91
78206;BME280;67480;48.920;12.880;2023-05-29T09:59:33;97236.03;;;24.51;27.12
78206;BME280;67480;48.920;12.880;2023-05-29T10:02:03;97236.72;;;24.73;27.73
78206;BME280;67480;48.920;12.880;2023-05-29T10:04:30;97237.19;;;24.53;27.34
78206;BME280;67480;48.920;12.880;2023-05-29T10:07:00;97239.53;;;24.62;27.59
78206;BME280;67480;48.920;12.880;2023-05-29T10:09:28;97240.75;;;24.47;27.05
78206;BME280;67480;48.920;12.880;2023-05-29T10:11:54;97236.34;;;24.71;27.33
78206;BME280;67480;48.920;12.880;2023-05-29T10:14:24;97233.63;;;25.27;25.44
78206;BME280;67480;48.920;12.880;2023-05-29T10:16:51;97231.59;;;25.42;25.34
78206;BME280;67480;48.920;12.880;2023-05-29T10:19:25;97238.03;;;25.21;26.18
78206;BME280;67480;48.920;12.880;2023-05-29T10:21:53;97240.81;;;25.14;25.37
78206;BME280;67480;48.920;12.880;2023-05-29T10:24:21;97241.28;;;25.61;26.21
78206;BME280;67480;48.920;12.880;2023-05-29T10:26:48;97229.31;;;26.20;25.65
78206;BME280;67480;48.920;12.880;2023-05-29T10:29:36;97237.16;;;26.56;24.99
78206;BME280;67480;48.920;12.880;2023-05-29T10:34:53;97229.38;;;26.13;23.98
78206;BME280;67480;48.920;12.880;2023-05-29T10:37:47;97233.91;;;26.30;26.56
78206;BME280;67480;48.920;12.880;2023-05-29T10:40:13;97232.63;;;27.00;24.59
78206;BME280;67480;48.920;12.880;2023-05-29T10:42:43;97232.94;;;27.80;24.22
78206;BME280;67480;48.920;12.880;2023-05-29T10:45:09;97228.50;;;28.50;22.55
78206;BME280;67480;48.920;12.880;2023-05-29T10:47:34;97223.31;;;28.32;22.98
78206;BME280;67480;48.920;12.880;2023-05-29T10:50:03;97226.53;;;27.63;22.59
78206;BME280;67480;48.920;12.880;2023-05-29T10:52:32;97223.78;;;26.85;23.06
78206;BME280;67480;48.920;12.880;2023-05-29T10:54:58;97221.38;;;26.87;23.66
78206;BME280;67480;48.920;12.880;2023-05-29T10:57:24;97211.00;;;26.68;24.71
78206;BME280;67480;48.920;12.880;2023-05-29T11:00:02;97215.94;;;27.58;24.36
78206;BME280;67480;48.920;12.880;2023-05-29T11:02:29;97218.63;;;27.85;22.74
78206;BME280;67480;48.920;12.880;2023-05-29T11:05:23;97217.34;;;27.46;23.75
78206;BME280;67480;48.920;12.880;2023-05-29T11:07:56;97216.50;;;27.73;22.47
78206;BME280;67480;48.920;12.880;2023-05-29T11:13:06;97217.97;;;28.42;22.55
78206;BME280;67480;48.920;12.880;2023-05-29T11:15:32;97217.84;;;29.22;23.04
78206;BME280;67480;48.920;12.880;2023-05-29T11:18:06;97221.16;;;27.76;22.96
78206;BME280;67480;48.920;12.880;2023-05-29T11:20:42;97213.75;;;27.73;22.65
78206;BME280;67480;48.920;12.880;2023-05-29T11:23:14;97206.09;;;27.34;24.18
78206;BME280;67480;48.920;12.880;2023-05-29T11:25:43;97209.72;;;27.27;23.44
78206;BME280;67480;48.920;12.880;2023-05-29T11:28:10;97202.31;;;27.95;23.39
78206;BME280;67480;48.920;12.880;2023-05-29T11:30:48;97214.66;;;29.23;21.19
78206;BME280;67480;48.920;12.880;2023-05-29T11:35:45;97213.16;;;33.82;18.05
78206;BME280;67480;48.920;12.880;2023-05-29T11:38:11;97219.66;;;34.53;17.04
78206;BME280;67480;48.920;12.880;2023-05-29T11:40:36;97224.75;;;33.62;17.41
78206;BME280;67480;48.920;12.880;2023-05-29T11:43:03;97212.69;;;33.74;17.35
78206;BME280;67480;48.920;12.880;2023-05-29T11:45:32;97234.25;;;37.04;14.70
78206;BME280;67480;48.920;12.880;2023-05-29T11:48:01;97223.16;;;37.31;14.65
78206;BME280;67480;48.920;12.880;2023-05-29T11:50:28;97211.13;;;34.19;16.74
78206;BME280;67480;48.920;12.880;2023-05-29T11:52:55;97211.06;;;31.63;18.88
78206;BME280;67480;48.920;12.880;2023-05-29T11:55:21;97215.84;;;34.84;16.52
78206;BME280;67480;48.920;12.880;2023-05-29T11:57:48;97223.03;;;37.04;15.32
78206;BME280;67480;48.920;12.880;2023-05-29T12:00:19;97226.19;;;38.56;14.33
78206;BME280;67480;48.920;12.880;2023-05-29T12:02:45;97227.31;;;38.38;14.43
78206;BME280;67480;48.920;12.880;2023-05-29T12:05:15;97219.47;;;39.12;13.63
78206;BME280;67480;48.920;12.880;2023-05-29T12:07:52;97221.50;;;37.80;14.22
78206;BME280;67480;48.920;12.880;2023-05-29T12:10:19;97228.41;;;37.23;14.71
78206;BME280;67480;48.920;12.880;2023-05-29T12:12:51;97227.69;;;36.63;15.48
78206;BME280;67480;48.920;12.880;2023-05-29T12:15:17;97209.19;;;35.48;16.69
78206;BME280;67480;48.920;12.880;2023-05-29T12:17:44;97211.53;;;34.64;17.43
78206;BME280;67480;48.920;12.880;2023-05-29T12:20:11;97198.88;;;34.17;19.12
78206;BME280;67480;48.920;12.880;2023-05-29T12:22:38;97196.19;;;34.60;18.25
78206;BME280;67480;48.920;12.880;2023-05-29T12:25:11;97200.22;;;34.49;16.75
78206;BME280;67480;48.920;12.880;2023-05-29T12:27:41;97198.50;;;34.70;17.08
78206;BME280;67480;48.920;12.880;2023-05-29T12:30:09;97210.25;;;36.14;16.01
78206;BME280;67480;48.920;12.880;2023-05-29T12:32:39;97195.69;;;36.25;15.63
78206;BME280;67480;48.920;12.880;2023-05-29T12:35:25;97190.19;;;33.00;18.10
78206;BME280;67480;48.920;12.880;2023-05-29T12:40:24;97188.53;;;32.49;18.72
78206;BME280;67480;48.920;12.880;2023-05-29T12:43:00;97184.34;;;31.53;20.76
78206;BME280;67480;48.920;12.880;2023-05-29T12:45:27;97180.19;;;30.16;20.94
78206;BME280;67480;48.920;12.880;2023-05-29T12:47:56;97179.03;;;30.00;23.77
78206;BME280;67480;48.920;12.880;2023-05-29T12:53:02;97173.28;;;28.03;23.47
78206;BME280;67480;48.920;12.880;2023-05-29T12:55:28;97173.66;;;28.45;22.95
78206;BME280;67480;48.920;12.880;2023-05-29T12:57:55;97180.31;;;28.08;23.96
78206;BME280;67480;48.920;12.880;2023-05-29T13:00:21;97169.78;;;28.59;23.19
78206;BME280;67480;48.920;12.880;2023-05-29T13:02:47;97170.88;;;28.98;23.10
78206;BME280;67480;48.920;12.880;2023-05-29T13:05:13;97177.31;;;29.28;23.08
78206;BME280;67480;48.920;12.880;2023-05-29T13:07:40;97167.44;;;29.43;23.14